Tiempo atmosférico en la estación meteorológica de Chelva, València/Valencia (546 m.)



Fecha
DESCASC
Temp. máxima en grados centígrados (hora)
DESCASC
Temp. mínima en grados centígrados (hora)
DESCASC
Temp. media en grados centígrados
DESCASC
Racha de viento máxima en m/sg (hora)
DESCASC
Velocidad máxima media en intervalos de 10 minutos(hora)
DESCASC
Precipitaciones diarias en mm
DESCASC
Precipitaciones de 00:00 a 06:00 en mm
DESCASC
Precipitaciones de 06:00 a 12:00 en mm
DESCASC
Precipitaciones de 12:00 a 18:00 en mm
DESCASC
Precipitaciones de 18:00 a 24:00 en mm
DESCASC
18-01-2018 17 (16:40) 1.5 (07:50) 9.3 3.89 (17:30) 2.22 (17:20) 0 0 0 0 0
17-01-2018 19.2 (14:20) 6.4 (23:59) 12.8 12.5 (06:10) 8.61 (06:10) 0 0 0 0 0
16-01-2018 19.6 (16:20) 6.4 (08:20) 13 11.39 (12:30) 8.06 (12:30) 0 0 0 0 0
15-01-2018 13.9 (16:00) 0.5 (08:00) 7.2 7.22 (21:40) 4.17 (21:40) 0 0 0 0 0
14-01-2018 10.6 (15:40) 3.2 (00:00) 6.9 11.11 (01:20) 6.67 (01:20) 0 0 0 0 0
13-01-2018 12.8 (16:20) 1.7 (00:00) 7.3 8.89 (17:40) 5 (21:30) 0 0 0 0 0
12-01-2018 13.5 (16:10) 2.9 (00:00) 8.2 10.83 (01:40) 6.94 (01:50) 0 0 0 0 0
11-01-2018 11.2 (15:10) 4.4 (00:00) 7.8 16.39 (12:00) 10 (13:50) 0 0 0 0 0
10-01-2018 12.2 (14:40) 5.4 (00:00) 8.8 17.5 (16:40) 9.44 (16:20) 0 0 0 0 0
09-01-2018 9.1 (14:00) 0.9 (00:00) 5 10.83 (16:00) 6.11 (14:10) 0 0 0 0 0
08-01-2018 12.4 (16:00) 0.8 (00:00) 6.6 3.33 (06:50) 1.67 (15:10) 0 0 0 0 0
07-01-2018 9 (14:50) 1.4 (00:00) 5.2 7.5 (02:00) 3.89 (02:00) 0.2 0 0 0.2 0
06-01-2018 10.2 (14:20) 4.2 (00:00) 7.2 11.67 (18:10) 4.44 (18:20) 16.6 0 0 12.8 3.8
05-01-2018 15.2 (14:40) 7.8 (00:00) 11.5 15 (12:10) 8.89 (12:10) 0 0 0 0 0
04-01-2018 18.2 (14:20) 12.4 (03:00) 15.3 14.44 (06:50) 9.44 (23:30) 0 0 0 0 0
03-01-2018 19.6 (15:00) 10.5 (00:00) 15.1 12.22 (20:40) 6.67 (20:40) 0 0 0 0 0
02-01-2018 16.9 (15:20) 9.1 (00:00) 13 12.78 (21:40) 7.5 (19:00) 0 0 0 0 0
01-01-2018 14.2 (14:20) 6.1 (00:00) 10.1 17.5 (16:10) 9.72 (17:00) 0 0 0 0 0
31-12-2017 15.8 (13:20) 5 (00:00) 10.4 18.61 (16:40) 10 (16:40) 0 0 0 0 0
30-12-2017 18.8 (14:00) 7.6 (00:00) 13.2 11.11 (04:20) 6.39 (14:50) 0 0 0 0 0
29-12-2017 17.6 (15:40) 6.4 (00:00) 12 14.44 (15:50) 8.33 (15:40) 0 0 0 0 0
28-12-2017 15.3 (14:40) 7.7 (00:00) 11.5 18.61 (13:40) 11.67 (13:30) 0 0 0 0 0
27-12-2017 12 (13:20) 7.7 (00:00) 9.8 20.83 (05:00) 10 (13:50) 1.2 0.4 0.8 0 0
26-12-2017 13.2 (13:10) 8 (00:00) 10.6 16.94 (23:20) 9.72 (23:40) 0 0 0 0 0
25-12-2017 15.5 (15:40) 1.3 (00:00) 8.4 8.33 (17:50) 4.17 (23:30) 0 0 0 0 0
24-12-2017 17.8 (16:20) 3.9 (00:00) 10.8 7.78 (10:30) 4.72 (12:00) 0 0 0 0 0
23-12-2017 14.9 (14:20) 1.8 (00:00) 8.3 4.17 (14:50) 2.5 (15:40) 0 0 0 0 0
22-12-2017 19.5 (14:30) 4.2 (00:00) 11.8 6.67 (14:50) 3.61 (03:50) 0 0 0 0 0

Gráficas

Temp. máximas Temp. mínimas Temp. medias Precipitaciones Rachas de viento máximas Velocidades máximas media en intervalos de 10 minutos

Datos horarios

Fecha y hora oficial Temperatura (ºC) Velocidad del viento (km/h) Dirección del viento Racha (km/h) Dirección de racha Precipitación (mm) Presión (hPa) Tendencia (hPa) Humedad (%)
2018-01-20 23:00:00 13.1 30 Noroeste 47 Oeste 0 -- -- 43
2018-01-20 22:00:00 12.7 9 Noroeste 39 Noroeste 0 -- -- 41
2018-01-20 21:00:00 12.7 22 Noroeste 40 Oeste 0 -- -- 38
2018-01-20 20:00:00 13.7 24 Noroeste 42 Oeste 0 -- -- 35
2018-01-20 19:00:00 14.7 19 Oeste 34 Oeste 0 -- -- 32
2018-01-20 18:00:00 16 15 Oeste 40 Oeste 0 -- -- 31
2018-01-20 17:00:00 17.7 26 Oeste 44 Oeste 0 -- -- 31
2018-01-20 16:00:00 18.1 25 Oeste 40 Noroeste 0 -- -- 31
2018-01-20 15:00:00 17.1 19 Oeste 37 Oeste 0 -- -- 34
2018-01-20 14:00:00 16.8 18 Oeste 31 Oeste 0 -- -- 34
2018-01-20 13:00:00 14.2 15 Noroeste 31 Oeste 0 -- -- 39
2018-01-20 12:00:00 10.5 18 Noroeste 39 Noroeste 0 -- -- 48
2018-01-20 11:00:00 8.2 23 Noroeste 35 Noroeste 0 -- -- 58
2018-01-20 10:00:00 7.5 22 Noroeste 34 Oeste 0 -- -- 62
2018-01-20 09:00:00 7.6 19 Noroeste 34 Oeste 0 -- -- 61
2018-01-20 08:00:00 8.7 19 Noroeste 44 Oeste 0 -- -- 57
2018-01-20 07:00:00 9 28 Noroeste 46 Oeste 0 -- -- 56
2018-01-20 06:00:00 9.3 30 Noroeste 43 Noroeste 0 -- -- 56
2018-01-20 05:00:00 9 20 Noroeste 31 Noroeste 0 -- -- 58
2018-01-20 04:00:00 9.3 13 Noroeste 36 Noroeste 0 -- -- 58
2018-01-20 03:00:00 9.1 24 Noroeste 41 Noroeste 0 -- -- 64
2018-01-20 02:00:00 9.9 19 Noroeste 39 Noroeste 0 -- -- 60
2018-01-20 01:00:00 9.7 18 Oeste 31 Oeste 0 -- -- 65
2018-01-20 00:00:00 10.2 13 Noroeste 55 Oeste 0 -- -- 64
2018-01-19 23:00:00 11.6 25 Noroeste 51 Noroeste 0 -- -- 59
2018-01-19 22:00:00 11.7 13 Noroeste 27 Oeste 0 -- -- 53
2018-01-19 21:00:00 11.5 6 Noroeste 23 Noroeste 0 -- -- 51
2018-01-19 20:00:00 13.8 14 Norte 29 Noroeste 0 -- -- 44
2018-01-19 19:00:00 13.1 6 Oeste 13 Noroeste 0 -- -- 44
2018-01-19 18:00:00 14.7 8 Oeste 28 Noroeste 0 -- -- 38
2018-01-19 17:00:00 17.1 12 Noroeste 38 Noroeste 0 -- -- 31
2018-01-19 16:00:00 18 18 Noroeste 38 Noroeste 0 -- -- 30
2018-01-19 15:00:00 17.3 13 Oeste 24 Oeste 0 -- -- 36
2018-01-19 14:00:00 16.4 6 Sudoeste 15 Oeste 0 -- -- 39
2018-01-19 13:00:00 15.2 8 Oeste 20 Sudoeste 0 -- -- 45
2018-01-19 12:00:00 12.9 8 Oeste 13 Sudoeste 0 -- -- 50
2018-01-19 11:00:00 10.3 2 Nordeste 10 Oeste 0 -- -- 53
2018-01-19 10:00:00 7 3 Norte 7 Noroeste 0 -- -- 61
2018-01-19 09:00:00 5.5 3 Norte 12 Oeste 0 -- -- 65
2018-01-19 08:00:00 5 4 Norte 9 Norte 0 -- -- 67
2018-01-19 07:00:00 5.2 3 Norte 8 Norte 0 -- -- 66
2018-01-19 06:00:00 5.3 5 Norte 9 Norte 0 -- -- 67
2018-01-19 05:00:00 5.6 3 Norte 9 Noroeste 0 -- -- 66
2018-01-19 04:00:00 6.3 2 Norte 11 Noroeste 0 -- -- 64
2018-01-19 03:00:00 5.6 5 Noroeste 9 Noroeste 0 -- -- 70
2018-01-19 02:00:00 6.8 3 Noroeste 18 Noroeste 0 -- -- 64
2018-01-19 01:00:00 7.2 5 Noroeste 13 Noroeste 0 -- -- 65
2018-01-19 00:00:00 6.6 3 Sur 8 Norte 0 -- -- 72
2018-01-18 23:00:00 7.1 4 Norte 7 Norte 0 -- -- 71
2018-01-18 22:00:00 7 0 Calma 8 Norte 0 -- -- 72
2018-01-18 21:00:00 7.7 4 Este 9 Nordeste 0 -- -- 69
2018-01-18 20:00:00 8.9 0 Calma 8 Nordeste 0 -- -- 67
2018-01-18 19:00:00 10 4 Nordeste 7 Sudeste 0 -- -- 63
2018-01-18 18:00:00 12.9 5 Sudeste 14 Sudeste 0 -- -- 55
2018-01-18 17:00:00 15.9 4 Sudeste 12 Sudeste 0 -- -- 45
2018-01-18 16:00:00 16.5 5 Sur 11 Sudeste 0 -- -- 43
2018-01-18 15:00:00 15.8 3 Sudoeste 10 Sur 0 -- -- 42
2018-01-18 14:00:00 14.7 4 Sudoeste 9 Sudoeste 0 -- -- 42
2018-01-18 13:00:00 13 5 Sudoeste 13 Sur 0 -- -- 50
2018-01-18 12:00:00 12.2 4 Sur 6 Sudeste 0 -- -- 50
2018-01-18 11:00:00 10.9 3 Sur 11 Norte 0 -- -- 52
2018-01-18 10:00:00 6.5 5 Noroeste 10 Oeste 0 -- -- 66
2018-01-18 09:00:00 3.5 3 Noroeste 9 Noroeste 0 -- -- 76
2018-01-18 08:00:00 1.5 3 Noroeste 4 Noroeste 0 -- -- 82
2018-01-18 07:00:00 2.2 3 Noroeste 10 Oeste 0 -- -- 78
2018-01-18 06:00:00 2.3 2 Noroeste 8 Oeste 0 -- -- 75
2018-01-18 05:00:00 2.8 4 Oeste 7 Oeste 0 -- -- 72
2018-01-18 04:00:00 3 0 Calma 6 Norte 0 -- -- 70
2018-01-18 03:00:00 3.4 0 Calma 5 Norte 0 -- -- 68
2018-01-18 02:00:00 4.3 2 Norte 7 Sur 0 -- -- 61
2018-01-18 01:00:00 5.4 4 Este 12 Nordeste 0 -- -- 52
2018-01-18 00:00:00 6.4 3 Oeste 13 Nordeste 0 -- -- 45
2018-01-17 23:00:00 7.3 3 Norte 15 Nordeste 0 -- -- 51
2018-01-17 22:00:00 8.1 6 Norte 12 Este 0 -- -- 46
2018-01-17 21:00:00 8.6 5 Norte 8 Norte 0 -- -- 49
2018-01-17 20:00:00 10.1 3 Norte 6 Norte 0 -- -- 45
2018-01-17 19:00:00 12.9 8 Noroeste 24 Oeste 0 -- -- 38
2018-01-17 18:00:00 14.7 15 Oeste 26 Noroeste 0 -- -- 34
2018-01-17 17:00:00 16.7 17 Oeste 30 Noroeste 0 -- -- 30
2018-01-17 16:00:00 18.1 16 Noroeste 31 Oeste 0 -- -- 29
2018-01-17 15:00:00 18.7 15 Oeste 27 Oeste 0 -- -- 26
2018-01-17 14:00:00 18.5 12 Oeste 31 Sudoeste 0 -- -- 28
2018-01-17 13:00:00 17.4 16 Oeste 31 Oeste 0 -- -- 33
2018-01-17 12:00:00 16.4 18 Oeste 33 Oeste 0 -- -- 39
2018-01-17 11:00:00 15.6 17 Oeste 34 Oeste 0 -- -- 42
2018-01-17 10:00:00 13.8 18 Noroeste 39 Oeste 0 -- -- 50
2018-01-17 09:00:00 12.4 25 Noroeste 42 Oeste 0 -- -- 54
2018-01-17 08:00:00 11.1 23 Oeste 45 Oeste 0 -- -- 59
2018-01-17 07:00:00 10.4 18 Noroeste 45 Oeste 0 -- -- 62
2018-01-17 06:00:00 9.8 27 Noroeste 45 Noroeste 0 -- -- 62
2018-01-17 05:00:00 9.7 24 Noroeste 42 Oeste 0 -- -- 62
2018-01-17 04:00:00 10.3 30 Noroeste 41 Noroeste 0 -- -- 61
2018-01-17 03:00:00 10.8 25 Noroeste 39 Oeste 0 -- -- 64
2018-01-17 02:00:00 10.7 17 Noroeste 34 Oeste 0 -- -- 68
2018-01-17 01:00:00 10.7 14 Oeste 32 Oeste 0 -- -- 68
2018-01-17 00:00:00 11.1 23 Noroeste 40 Oeste 0 -- -- 67
2018-01-16 23:00:00 11.5 17 Noroeste 36 Noroeste 0 -- -- 65
2018-01-16 22:00:00 11.2 14 Noroeste 33 Noroeste 0 -- -- 67
2018-01-16 21:00:00 12.4 19 Oeste 31 Noroeste 0 -- -- 63
2018-01-16 20:00:00 13.4 12 Oeste 25 Oeste 0 -- -- 59
2018-01-16 19:00:00 14.5 5 Oeste 24 Noroeste 0 -- -- 56
2018-01-16 18:00:00 16.6 12 Oeste 30 Oeste 0 -- -- 50
2018-01-16 17:00:00 18.8 12 Oeste 22 Sudoeste 0 -- -- 45
2018-01-16 16:00:00 19.3 9 Sur 20 Oeste 0 -- -- 42
2018-01-16 15:00:00 18.8 8 Noroeste 29 Noroeste 0 -- -- 41
2018-01-16 14:00:00 17.4 16 Oeste 36 Oeste 0 -- -- 43
2018-01-16 13:00:00 15.9 23 Oeste 41 Oeste 0 -- -- 45
2018-01-16 12:00:00 14.2 19 Noroeste 36 Oeste 0 -- -- 49
2018-01-16 11:00:00 11.2 18 Noroeste 32 Noroeste 0 -- -- 52
2018-01-16 10:00:00 8.9 16 Noroeste 39 Noroeste 0 -- -- 53
2018-01-16 09:00:00 7.3 22 Noroeste 40 Noroeste 0 -- -- 55
2018-01-16 08:00:00 6.5 19 Noroeste 31 Oeste 0 -- -- 53
2018-01-16 07:00:00 7.1 14 Noroeste 28 Noroeste 0 -- -- 49
2018-01-16 06:00:00 7.4 13 Noroeste 29 Noroeste 0 -- -- 49
2018-01-16 05:00:00 7 15 Noroeste 26 Oeste 0 -- -- 52
2018-01-16 04:00:00 6.9 18 Noroeste 29 Noroeste 0 -- -- 54
2018-01-16 03:00:00 6.5 12 Noroeste 24 Noroeste 0 -- -- 57
2018-01-16 02:00:00 6.6 6 Noroeste 27 Noroeste 0 -- -- 57
2018-01-16 01:00:00 7 14 Noroeste 23 Noroeste 0 -- -- 57
2018-01-16 00:00:00 7 11 Noroeste 21 Noroeste 0 -- -- 59
2018-01-15 23:00:00 7 6 Noroeste 17 Noroeste 0 -- -- 58
2018-01-15 22:00:00 8.1 10 Oeste 26 Oeste 0 -- -- 55
2018-01-15 21:00:00 9 11 Noroeste 24 Noroeste 0 -- -- 53
2018-01-15 20:00:00 9.5 9 Noroeste 19 Oeste 0 -- -- 52
2018-01-15 19:00:00 10.7 12 Noroeste 22 Oeste 0 -- -- 50
2018-01-15 18:00:00 11.2 4 Oeste 17 Sudoeste 0 -- -- 44
2018-01-15 17:00:00 13.1 7 Sudoeste 22 Oeste 0 -- -- 36
2018-01-15 16:00:00 13.9 7 Oeste 22 Oeste 0 -- -- 35
2018-01-15 15:00:00 12.8 8 Noroeste 17 Oeste 0 -- -- 39
2018-01-15 14:00:00 12.1 8 Oeste 19 Oeste 0 -- -- 42
2018-01-15 13:00:00 11.3 9 Oeste 18 Sudoeste 0 -- -- 44
2018-01-15 12:00:00 10.1 7 Oeste 15 Oeste 0 -- -- 49
2018-01-15 11:00:00 9.9 3 Sur 10 Este 0 -- -- 53
2018-01-15 10:00:00 7.8 0 Calma 8 Este 0 -- -- 59
2018-01-15 09:00:00 2.2 4 Nordeste 8 Norte 0 -- -- 78
2018-01-15 08:00:00 0.5 3 Noroeste 8 Norte 0 -- -- 82
2018-01-15 07:00:00 1.1 2 Norte 8 Norte 0 -- -- 81
2018-01-15 06:00:00 1.9 5 Nordeste 9 Nordeste 0 -- -- 80
2018-01-15 05:00:00 1.4 2 Noroeste 15 Oeste 0 -- -- 78
2018-01-15 04:00:00 1.7 4 Norte 10 Noroeste 0 -- -- 78
2018-01-15 03:00:00 2.1 2 Noroeste 6 Norte 0 -- -- 76
2018-01-15 02:00:00 2.2 0 Calma 4 Norte 0 -- -- 76
2018-01-15 01:00:00 3.8 2 Oeste 7 Noroeste 0 -- -- 71
2018-01-15 00:00:00 3.2 0 Calma 9 Noroeste 0 -- -- 71
2018-01-14 23:00:00 4.6 7 Noroeste 13 Noroeste 0 -- -- 64
2018-01-14 22:00:00 3.8 3 Nordeste 8 Noroeste 0 -- -- 67
2018-01-14 21:00:00 4.9 5 Noroeste 10 Noroeste 0 -- -- 64
2018-01-14 20:00:00 4 0 Calma 15 Nordeste 0 -- -- 71
2018-01-14 19:00:00 5.6 5 Nordeste 9 Nordeste 0 -- -- 65
2018-01-14 18:00:00 7.9 2 Norte 9 Oeste 0 -- -- 59
2018-01-14 17:00:00 9.6 6 Oeste 19 Sudoeste 0 -- -- 52
2018-01-14 16:00:00 10.2 8 Oeste 19 Oeste 0 -- -- 48
2018-01-14 15:00:00 10 10 Oeste 22 Oeste 0 -- -- 50
2018-01-14 14:00:00 9.4 12 Oeste 23 Oeste 0 -- -- 51
2018-01-14 13:00:00 8.3 8 Oeste 38 Noroeste 0 -- -- 57
2018-01-14 12:00:00 7.6 19 Noroeste 34 Oeste 0 -- -- 58
2018-01-14 11:00:00 7.2 13 Noroeste 26 Noroeste 0 -- -- 61
2018-01-14 10:00:00 5.5 13 Noroeste 27 Noroeste 0 -- -- 68
2018-01-14 09:00:00 4.9 13 Noroeste 26 Noroeste 0 -- -- 70
2018-01-14 08:00:00 4.6 9 Noroeste 27 Noroeste 0 -- -- 71
2018-01-14 07:00:00 5 12 Oeste 33 Oeste 0 -- -- 69
2018-01-14 06:00:00 4.9 20 Noroeste 29 Oeste 0 -- -- 69
2018-01-14 05:00:00 5.5 15 Oeste 29 Oeste 0 -- -- 65
2018-01-14 04:00:00 5.8 17 Noroeste 30 Oeste 0 -- -- 67
2018-01-14 03:00:00 6.4 19 Noroeste 30 Oeste 0 -- -- 66
2018-01-14 02:00:00 6.7 14 Noroeste 40 Noroeste 0 -- -- 66
2018-01-14 01:00:00 7.4 21 Oeste 39 Noroeste 0 -- -- 65
2018-01-14 00:00:00 6.9 12 Noroeste 31 Oeste 0 -- -- 73
2018-01-13 23:00:00 6.6 9 Oeste 21 Oeste 0 -- -- 76
2018-01-13 22:00:00 6.9 14 Noroeste 31 Noroeste 0 -- -- 75
2018-01-13 21:00:00 7.2 13 Noroeste 24 Noroeste 0 -- -- 69
2018-01-13 20:00:00 8.3 12 Noroeste 20 Noroeste 0 -- -- 58
2018-01-13 19:00:00 9.3 9 Oeste 30 Oeste 0 -- -- 51
2018-01-13 18:00:00 10.3 11 Oeste 32 Oeste 0 -- -- 44
2018-01-13 17:00:00 11.7 2 Sudoeste 13 Sudeste 0 -- -- 45
2018-01-13 16:00:00 12 3 Oeste 8 Sur 0 -- -- 46
2018-01-13 15:00:00 10.5 4 Sur 10 Este 0 -- -- 57
2018-01-13 14:00:00 9.4 3 Sudoeste 7 Sur 0 -- -- 64
2018-01-13 13:00:00 9.6 0 Calma 6 Sudoeste 0 -- -- 61
2018-01-13 12:00:00 8.5 0 Calma 6 Oeste 0 -- -- 58
2018-01-13 11:00:00 6.2 0 Calma 8 Oeste 0 -- -- 64
2018-01-13 10:00:00 3.7 5 Oeste 9 Oeste 0 -- -- 73
2018-01-13 09:00:00 1.8 0 Calma 16 Noroeste 0 -- -- 78
2018-01-13 08:00:00 1.8 0 Calma 11 Norte 0 -- -- 77
2018-01-13 07:00:00 2.5 0 Calma 13 Noroeste 0 -- -- 74
2018-01-13 06:00:00 2.1 0 Calma 11 Noroeste 0 -- -- 74
2018-01-13 05:00:00 2.3 0 Calma 14 Noroeste 0 -- -- 73
2018-01-13 04:00:00 2.1 5 Oeste 8 Oeste 0 -- -- 76
2018-01-13 03:00:00 2.5 5 Este 23 Oeste 0 -- -- 72
2018-01-13 02:00:00 2.1 3 Noroeste 5 Oeste 0 -- -- 77
2018-01-13 01:00:00 2.6 3 Norte 7 Oeste 0 -- -- 74
2018-01-13 00:00:00 3 2 Norte 6 Nordeste 0 -- -- 74
2018-01-12 23:00:00 4.4 0 Calma 9 Nordeste 0 -- -- 68
2018-01-12 22:00:00 4.9 5 Nordeste 9 Este 0 -- -- 64
2018-01-12 21:00:00 6.2 4 Noroeste 15 Noroeste 0 -- -- 62
2018-01-12 20:00:00 8.5 10 Noroeste 18 Noroeste 0 -- -- 55
2018-01-12 19:00:00 9.4 11 Oeste 20 Oeste 0 -- -- 52
2018-01-12 18:00:00 10.6 7 Oeste 21 Noroeste 0 -- -- 48
2018-01-12 17:00:00 12.6 13 Noroeste 26 Noroeste 0 -- -- 42
2018-01-12 16:00:00 13.3 13 Oeste 37 Sudoeste 0 -- -- 40
2018-01-12 15:00:00 12.5 20 Oeste 36 Oeste 0 -- -- 42
2018-01-12 14:00:00 12.5 16 Oeste 27 Oeste 0 -- -- 39
2018-01-12 13:00:00 11.9 14 Oeste 27 Oeste 0 -- -- 39
2018-01-12 12:00:00 11.3 13 Oeste 23 Oeste 0 -- -- 43
2018-01-12 11:00:00 10.4 10 Oeste 18 Sudoeste 0 -- -- 48
2018-01-12 10:00:00 9 4 Este 21 Noroeste 0 -- -- 53
2018-01-12 09:00:00 6.4 13 Noroeste 22 Oeste 0 -- -- 59
2018-01-12 08:00:00 3.2 3 Nordeste 12 Noroeste 0 -- -- 66
2018-01-12 07:00:00 5.2 10 Noroeste 20 Oeste 0 -- -- 63
2018-01-12 06:00:00 6 9 Oeste 23 Oeste 0 -- -- 60
2018-01-12 05:00:00 6.4 10 Oeste 27 Noroeste 0 -- -- 60
2018-01-12 04:00:00 6.2 17 Noroeste 33 Oeste 0 -- -- 61
2018-01-12 03:00:00 5.9 17 Oeste 32 Noroeste 0 -- -- 62
2018-01-12 02:00:00 5.7 19 Noroeste 39 Oeste 0 -- -- 63
2018-01-12 01:00:00 5.2 5 Oeste 30 Oeste 0 -- -- 62
2018-01-12 00:00:00 6.1 16 Oeste 43 Oeste 0 -- -- 58
2018-01-11 23:00:00 7.7 23 Noroeste 43 Oeste 0 -- -- 49
2018-01-11 22:00:00 6.9 14 Oeste 27 Noroeste 0 -- -- 48
2018-01-11 21:00:00 6.9 15 Oeste 46 Noroeste 0 -- -- 48
2018-01-11 20:00:00 7.6 18 Noroeste 51 Oeste 0 -- -- 46
2018-01-11 19:00:00 8.4 19 Noroeste 46 Oeste 0 -- -- 43
2018-01-11 18:00:00 9.2 21 Noroeste 47 Oeste 0 -- -- 41
2018-01-11 17:00:00 10.4 23 Noroeste 54 Noroeste 0 -- -- 39
2018-01-11 16:00:00 11 24 Noroeste 57 Noroeste 0 -- -- 38
2018-01-11 15:00:00 11 33 Noroeste 58 Noroeste 0 -- -- 38
2018-01-11 14:00:00 10.5 30 Oeste 56 Oeste 0 -- -- 41
2018-01-11 13:00:00 10.5 23 Noroeste 58 Oeste 0 -- -- 41
2018-01-11 12:00:00 9.5 33 Oeste 59 Oeste 0 -- -- 45
2018-01-11 11:00:00 9 28 Oeste 49 Noroeste 0 -- -- 51
2018-01-11 10:00:00 7.3 16 Oeste 38 Noroeste 0 -- -- 61
2018-01-11 09:00:00 5.3 9 Oeste 29 Oeste 0 -- -- 68
2018-01-11 08:00:00 4.9 18 Noroeste 35 Noroeste 0 -- -- 67
2018-01-11 07:00:00 5.1 18 Oeste 39 Oeste 0 -- -- 64
2018-01-11 06:00:00 5.7 20 Oeste 35 Oeste 0 -- -- 61
2018-01-11 05:00:00 6.2 20 Noroeste 45 Oeste 0 -- -- 57
2018-01-11 04:00:00 6.4 23 Oeste 38 Noroeste 0 -- -- 56
2018-01-11 03:00:00 6.5 16 Oeste 32 Oeste 0 -- -- 59
2018-01-11 02:00:00 7.1 16 Oeste 41 Oeste 0 -- -- 55
2018-01-11 01:00:00 7.9 18 Oeste 36 Oeste 0 -- -- 59
2018-01-11 00:00:00 8.4 17 Oeste 40 Noroeste 0 -- -- 62
2018-01-10 23:00:00 9 17 Oeste 34 Oeste 0 -- -- 62
2018-01-10 22:00:00 9.3 21 Oeste 42 Noroeste 0 -- -- 68
2018-01-10 21:00:00 9 20 Noroeste 40 Noroeste 0 -- -- 68
2018-01-10 20:00:00 9.3 17 Noroeste 35 Oeste 0 -- -- 64
2018-01-10 19:00:00 10 21 Oeste 39 Oeste 0 -- -- 65
2018-01-10 18:00:00 9.6 28 Oeste 54 Oeste 0 -- -- 63
2018-01-10 17:00:00 10 29 Oeste 63 Oeste 0 -- -- 61
2018-01-10 16:00:00 11.1 30 Noroeste 48 Oeste 0 -- -- 55
2018-01-10 15:00:00 11.7 29 Oeste 55 Noroeste 0 -- -- 53
2018-01-10 14:00:00 11.3 26 Oeste 55 Oeste 0 -- -- 53
2018-01-10 13:00:00 11.5 19 Oeste 42 Oeste 0 -- -- 56
2018-01-10 12:00:00 11.1 19 Oeste 38 Oeste 0 -- -- 58
2018-01-10 11:00:00 10.5 19 Oeste 33 Oeste 0 -- -- 63
2018-01-10 10:00:00 8.8 11 Noroeste 19 Noroeste 0 -- -- 72
2018-01-10 09:00:00 6.4 7 Noroeste 18 Oeste 0 -- -- 79
2018-01-10 08:00:00 6.6 9 Noroeste 19 Noroeste 0 -- -- 77
2018-01-10 07:00:00 6.5 6 Noroeste 15 Noroeste 0 -- -- 78
2018-01-10 06:00:00 6.2 8 Noroeste 16 Oeste 0 -- -- 79
2018-01-10 05:00:00 5.8 9 Oeste 14 Oeste 0 -- -- 81
2018-01-10 04:00:00 5.8 5 Oeste 10 Oeste 0 -- -- 78
2018-01-10 03:00:00 6.2 5 Oeste 12 Noroeste 0 -- -- 76
2018-01-10 02:00:00 5.4 4 Oeste 11 Sudoeste 0 -- -- 76
2018-01-10 01:00:00 5.5 9 Oeste 17 Oeste 0 -- -- 74
2018-01-10 00:00:00 5.6 10 Oeste 18 Oeste 0 -- -- 72
2018-01-09 23:00:00 5.9 10 Oeste 23 Oeste 0 -- -- 69
2018-01-09 22:00:00 6.3 13 Oeste 23 Noroeste 0 -- -- 65
2018-01-09 21:00:00 5.7 9 Noroeste 17 Oeste 0 -- -- 67
2018-01-09 20:00:00 6.3 11 Noroeste 22 Noroeste 0 -- -- 64
2018-01-09 19:00:00 7.1 10 Oeste 33 Oeste 0 -- -- 61
2018-01-09 18:00:00 7.5 13 Oeste 28 Noroeste 0 -- -- 59
2018-01-09 17:00:00 7.9 13 Oeste 34 Oeste 0 -- -- 55
2018-01-09 16:00:00 9.1 17 Oeste 39 Sudoeste 0 -- -- 49
2018-01-09 15:00:00 9 20 Oeste 37 Oeste 0 -- -- 50
2018-01-09 14:00:00 9.1 17 Oeste 36 Oeste 0 -- -- 50
2018-01-09 13:00:00 8.8 15 Oeste 32 Noroeste 0 -- -- 52
2018-01-09 12:00:00 8.4 11 Oeste 23 Oeste 0 -- -- 55
2018-01-09 11:00:00 7.1 9 Oeste 21 Oeste 0 -- -- 60
2018-01-09 10:00:00 4.8 9 Noroeste 21 Oeste 0 -- -- 67
2018-01-09 09:00:00 2.3 12 Noroeste 23 Oeste 0 -- -- 75
2018-01-09 08:00:00 1.3 10 Oeste 21 Oeste 0 -- -- 79
2018-01-09 07:00:00 1.5 7 Oeste 18 Oeste 0 -- -- 78
2018-01-09 06:00:00 1.7 10 Oeste 21 Oeste 0 -- -- 78
2018-01-09 05:00:00 1.6 10 Noroeste 18 Oeste 0 -- -- 79
2018-01-09 04:00:00 1.1 2 Oeste 18 Oeste 0 -- -- 82
2018-01-09 03:00:00 1.6 5 Noroeste 8 Noroeste 0 -- -- 82
2018-01-09 02:00:00 2.7 3 Noroeste 20 Oeste 0 -- -- 76
2018-01-09 01:00:00 3.2 12 Oeste 21 Noroeste 0 -- -- 77
2018-01-09 00:00:00 2.4 4 Noroeste 10 Sudoeste 0 -- -- 81
2018-01-08 23:00:00 3 0 Calma 6 Nordeste 0 -- -- 78
2018-01-08 22:00:00 4.3 3 Sur 10 Noroeste 0 -- -- 74
2018-01-08 21:00:00 3.9 2 Noroeste 6 Norte 0 -- -- 79
2018-01-08 20:00:00 4.9 5 Norte 6 Norte 0 -- -- 77
2018-01-08 19:00:00 6.1 3 Noroeste 9 Norte 0 -- -- 73
2018-01-08 18:00:00 8.3 0 Calma 9 Sudeste 0 -- -- 65
2018-01-08 17:00:00 10.4 5 Sur 8 Sur 0 -- -- 52
2018-01-08 16:00:00 12.4 3 Sur 11 Sur 0 -- -- 46
2018-01-08 15:00:00 12.3 0 Calma 11 Oeste 0 -- -- 45
2018-01-08 14:00:00 11.2 3 Oeste 9 Oeste 0 -- -- 46
2018-01-08 13:00:00 10.3 4 Sudoeste 10 Sudoeste 0 -- -- 54
2018-01-08 12:00:00 8.9 4 Oeste 10 Sudoeste 0 -- -- 58
2018-01-08 11:00:00 7.4 4 Sudoeste 9 Sudoeste 0 -- -- 62
2018-01-08 10:00:00 5 0 Calma 7 Noroeste 0 -- -- 77
2018-01-08 09:00:00 1.1 5 Noroeste 10 Oeste 0 -- -- 88
2018-01-08 08:00:00 1.1 3 Oeste 9 Oeste 0 -- -- 89
2018-01-08 07:00:00 2.1 2 Noroeste 12 Noroeste 0 -- -- 86
2018-01-08 06:00:00 2.1 3 Sudoeste 6 Oeste 0 -- -- 89
2018-01-08 05:00:00 1.5 4 Noroeste 8 Oeste 0 -- -- 90
2018-01-08 04:00:00 2.2 5 Norte 9 Noroeste 0 -- -- 87
2018-01-08 03:00:00 2.5 2 Oeste 9 Oeste 0 -- -- 85
2018-01-08 02:00:00 2.8 4 Oeste 7 Noroeste 0 -- -- 85
2018-01-08 01:00:00 1.9 0 Calma 5 Oeste 0 -- -- 88
2018-01-08 00:00:00 1.4 0 Calma 6 Noroeste 0 -- -- 89
2018-01-07 23:00:00 2 0 Calma 8 Nordeste 0 -- -- 87
2018-01-07 22:00:00 2.3 0 Calma 8 Norte 0 -- -- 85
2018-01-07 21:00:00 3 3 Norte 6 Nordeste 0 -- -- 85
2018-01-07 20:00:00 4.1 2 Sudeste 7 Este 0 -- -- 76
2018-01-07 19:00:00 4.5 2 Norte 9 Norte 0 -- -- 75
2018-01-07 18:00:00 5.8 5 Norte 7 Norte 0 -- -- 72
2018-01-07 17:00:00 7.7 0 Calma 5 Nordeste 0 -- -- 58
2018-01-07 16:00:00 7.9 3 Nordeste 11 Este 0.2 -- -- 58
2018-01-07 15:00:00 8.5 4 Nordeste 13 Sudeste 0 -- -- 57
2018-01-07 14:00:00 7.5 8 Sudeste 13 Sudeste 0 -- -- 62
2018-01-07 13:00:00 6.9 4 Sudeste 15 Sudeste 0 -- -- 67
2018-01-07 12:00:00 6.4 0 Calma 9 Noroeste 0 -- -- 66
2018-01-07 11:00:00 5.8 6 Noroeste 19 Noroeste 0 -- -- 73
2018-01-07 10:00:00 6 10 Oeste 18 Noroeste 0 -- -- 74
2018-01-07 09:00:00 4.2 5 Noroeste 18 Noroeste 0 -- -- 83
2018-01-07 08:00:00 3.9 10 Noroeste 25 Noroeste 0 -- -- 82
2018-01-07 07:00:00 4 9 Noroeste 18 Noroeste 0 -- -- 79
2018-01-07 06:00:00 3.8 6 Noroeste 20 Oeste 0 -- -- 79
2018-01-07 05:00:00 3.4 8 Noroeste 23 Noroeste 0 -- -- 82
2018-01-07 04:00:00 3.4 6 Noroeste 21 Noroeste 0 -- -- 81
2018-01-07 03:00:00 4.1 13 Noroeste 25 Oeste 0 -- -- 79
2018-01-07 02:00:00 4.5 14 Oeste 27 Oeste 0 -- -- 76
2018-01-07 01:00:00 4.3 10 Noroeste 19 Noroeste 0 -- -- 83
2018-01-07 00:00:00 4.2 10 Noroeste 20 Noroeste 0 -- -- 85
2018-01-06 23:00:00 4.6 10 Noroeste 25 Oeste 0 -- -- 85
2018-01-06 22:00:00 5.2 9 Oeste 18 Oeste 0 -- -- 90
2018-01-06 21:00:00 5.8 5 Noroeste 19 Oeste 0 -- -- 90
2018-01-06 20:00:00 5.8 5 Oeste 21 Norte 1.2 -- -- 92
2018-01-06 19:00:00 6 2 Este 42 Sudeste 2.6 -- -- 93
2018-01-06 18:00:00 9.2 8 Sudeste 18 Sudeste 0 -- -- 95
2018-01-06 17:00:00 8.6 6 Este 16 Sudeste 11.2 -- -- 95
2018-01-06 16:00:00 9 5 Sur 17 Sudeste 1.6 -- -- 91
2018-01-06 15:00:00 9.8 9 Sudeste 17 Sudeste 0 -- -- 82
2018-01-06 14:00:00 9.9 8 Sudeste 17 Sudeste 0 -- -- 75
2018-01-06 13:00:00 9.7 7 Sudeste 14 Este 0 -- -- 73
2018-01-06 12:00:00 9.5 0 Calma 8 Nordeste 0 -- -- 68
2018-01-06 11:00:00 7.9 4 Noroeste 9 Oeste 0 -- -- 75
2018-01-06 10:00:00 7 3 Noroeste 11 Este 0 -- -- 78
2018-01-06 09:00:00 5.9 3 Noroeste 17 Oeste 0 -- -- 82
2018-01-06 08:00:00 6.1 3 Norte 8 Oeste 0 -- -- 80
2018-01-06 07:00:00 6.6 0 Calma 7 Norte 0 -- -- 78
2018-01-06 06:00:00 6.4 0 Calma 9 Este 0 -- -- 79
2018-01-06 05:00:00 6.8 2 Oeste 7 Noroeste 0 -- -- 78
2018-01-06 04:00:00 6.7 4 Noroeste 12 Noroeste 0 -- -- 78
2018-01-06 03:00:00 7.8 6 Noroeste 13 Norte 0 -- -- 75
2018-01-06 02:00:00 7.9 5 Noroeste 11 Noroeste 0 -- -- 74
2018-01-06 01:00:00 7.8 3 Oeste 12 Oeste 0 -- -- 76
2018-01-06 00:00:00 7.8 0 Calma 8 Oeste 0 -- -- 74
2018-01-05 23:00:00 9.5 5 Noroeste 13 Noroeste 0 -- -- 68
2018-01-05 22:00:00 10.8 8 Noroeste 14 Noroeste 0 -- -- 64
2018-01-05 21:00:00 10.9 7 Noroeste 16 Noroeste 0 -- -- 62
2018-01-05 20:00:00 11.1 5 Noroeste 29 Noroeste 0 -- -- 61
2018-01-05 19:00:00 12.2 17 Oeste 29 Oeste 0 -- -- 56
2018-01-05 18:00:00 12.8 15 Noroeste 35 Oeste 0 -- -- 52
2018-01-05 17:00:00 13.1 13 Oeste 42 Oeste 0 -- -- 52
2018-01-05 16:00:00 14 19 Oeste 44 Oeste 0 -- -- 50
2018-01-05 15:00:00 14.8 23 Oeste 42 Oeste 0 -- -- 47
2018-01-05 14:00:00 14.8 26 Noroeste 48 Oeste 0 -- -- 46
2018-01-05 13:00:00 13.5 24 Oeste 54 Oeste 0 -- -- 50
2018-01-05 12:00:00 13.3 28 Oeste 51 Oeste 0 -- -- 51
2018-01-05 11:00:00 13.5 25 Oeste 50 Noroeste 0 -- -- 53
2018-01-05 10:00:00 12.8 24 Oeste 45 Noroeste 0 -- -- 57
2018-01-05 09:00:00 11.6 25 Oeste 49 Noroeste 0 -- -- 58
2018-01-05 08:00:00 11.1 24 Noroeste 45 Oeste 0 -- -- 61
2018-01-05 07:00:00 11 17 Noroeste 34 Oeste 0 -- -- 62
2018-01-05 06:00:00 11.5 22 Oeste 42 Oeste 0 -- -- 60
2018-01-05 05:00:00 11.4 20 Noroeste 36 Oeste 0 -- -- 63
2018-01-05 04:00:00 11.9 18 Oeste 34 Oeste 0 -- -- 63
2018-01-05 03:00:00 12 18 Oeste 34 Oeste 0 -- -- 64
2018-01-05 02:00:00 11.8 14 Oeste 24 Noroeste 0 -- -- 66
2018-01-05 01:00:00 11.8 14 Oeste 41 Noroeste 0 -- -- 65
2018-01-05 00:00:00 12.4 29 Oeste 49 Oeste 0 -- -- 63
2018-01-04 23:00:00 12.6 30 Oeste 48 Oeste 0 -- -- 61
2018-01-04 22:00:00 12.6 22 Oeste 44 Oeste 0 -- -- 61
2018-01-04 21:00:00 12.6 24 Noroeste 40 Oeste 0 -- -- 62
2018-01-04 20:00:00 12.9 23 Oeste 45 Noroeste 0 -- -- 64
2018-01-04 19:00:00 13 22 Noroeste 40 Noroeste 0 -- -- 65
2018-01-04 18:00:00 13.6 23 Noroeste 44 Oeste 0 -- -- 64
2018-01-04 17:00:00 15.2 21 Oeste 43 Oeste 0 -- -- 59
2018-01-04 16:00:00 16.7 26 Oeste 46 Oeste 0 -- -- 54
2018-01-04 15:00:00 17.9 19 Oeste 51 Sudoeste 0 -- -- 52
2018-01-04 14:00:00 17.5 30 Oeste 49 Oeste 0 -- -- 54
2018-01-04 13:00:00 18 21 Oeste 45 Oeste 0 -- -- 54
2018-01-04 12:00:00 17.4 19 Oeste 45 Noroeste 0 -- -- 55
2018-01-04 11:00:00 15.9 25 Oeste 49 Oeste 0 -- -- 59
2018-01-04 10:00:00 14.6 19 Oeste 36 Oeste 0 -- -- 65
2018-01-04 09:00:00 13.2 23 Oeste 36 Oeste 0 -- -- 70
2018-01-04 08:00:00 12.4 21 Noroeste 44 Oeste 0 -- -- 72
2018-01-04 07:00:00 12.7 30 Noroeste 52 Noroeste 0 -- -- 71
2018-01-04 06:00:00 12.9 25 Oeste 36 Oeste 0 -- -- 70
2018-01-04 05:00:00 12.6 17 Noroeste 27 Noroeste 0 -- -- 72
2018-01-04 04:00:00 13.3 17 Noroeste 30 Oeste 0 -- -- 69
2018-01-04 03:00:00 12.4 8 Noroeste 16 Oeste 0 -- -- 73
2018-01-04 02:00:00 13.4 13 Noroeste 31 Noroeste 0 -- -- 70
2018-01-04 01:00:00 14.1 17 Noroeste 32 Oeste 0 -- -- 67
2018-01-04 00:00:00 13.6 13 Noroeste 35 Noroeste 0 -- -- 68
2018-01-03 23:00:00 13.9 19 Noroeste 36 Noroeste 0 -- -- 66
2018-01-03 22:00:00 13.8 21 Oeste 34 Oeste 0 -- -- 66
2018-01-03 21:00:00 14 19 Oeste 44 Oeste 0 -- -- 66
2018-01-03 20:00:00 15 22 Noroeste 35 Oeste 0 -- -- 62
2018-01-03 19:00:00 15.3 17 Noroeste 33 Oeste 0 -- -- 62
2018-01-03 18:00:00 16.3 23 Oeste 40 Oeste 0 -- -- 59
2018-01-03 17:00:00 18.1 13 Oeste 35 Oeste 0 -- -- 55
2018-01-03 16:00:00 19 15 Oeste 33 Oeste 0 -- -- 52
2018-01-03 15:00:00 19.6 19 Oeste 35 Noroeste 0 -- -- 50
2018-01-03 14:00:00 18.4 14 Oeste 29 Oeste 0 -- -- 53
2018-01-03 13:00:00 16.7 14 Oeste 34 Noroeste 0 -- -- 57
2018-01-03 12:00:00 15.6 13 Oeste 29 Oeste 0 -- -- 60
2018-01-03 11:00:00 15.8 16 Oeste 30 Oeste 0 -- -- 59
2018-01-03 10:00:00 13.1 18 Oeste 28 Noroeste 0 -- -- 68
2018-01-03 09:00:00 10.9 5 Oeste 26 Noroeste 0 -- -- 76
2018-01-03 08:00:00 10.8 9 Noroeste 25 Noroeste 0 -- -- 75
2018-01-03 07:00:00 11.2 12 Noroeste 25 Oeste 0 -- -- 74
2018-01-03 06:00:00 11.3 12 Noroeste 20 Noroeste 0 -- -- 73
2018-01-03 05:00:00 11.4 10 Noroeste 27 Noroeste 0 -- -- 72
2018-01-03 04:00:00 11.7 14 Noroeste 28 Norte 0 -- -- 71
2018-01-03 03:00:00 11.5 13 Noroeste 27 Oeste 0 -- -- 70
2018-01-03 02:00:00 11.8 16 Noroeste 31 Noroeste 0 -- -- 68
2018-01-03 01:00:00 12.3 19 Noroeste 29 Noroeste 0 -- -- 66
2018-01-03 00:00:00 12.5 11 Noroeste 32 Oeste 0 -- -- 65
2018-01-02 23:00:00 12.9 19 Noroeste 36 Noroeste 0 -- -- 64
2018-01-02 22:00:00 12.7 22 Noroeste 46 Noroeste 0 -- -- 63
2018-01-02 21:00:00 12.8 27 Noroeste 42 Noroeste 0 -- -- 62
2018-01-02 20:00:00 13 23 Noroeste 44 Noroeste 0 -- -- 61
2018-01-02 19:00:00 13.5 27 Oeste 45 Oeste 0 -- -- 59
2018-01-02 18:00:00 14.3 23 Noroeste 41 Noroeste 0 -- -- 55
2018-01-02 17:00:00 15.3 25 Oeste 43 Oeste 0 -- -- 52
2018-01-02 16:00:00 16.6 25 Oeste 45 Oeste 0 -- -- 47
2018-01-02 15:00:00 16.5 19 Oeste 36 Noroeste 0 -- -- 47
2018-01-02 14:00:00 15.7 21 Oeste 44 Oeste 0 -- -- 48
2018-01-02 13:00:00 13.9 19 Oeste 37 Noroeste 0 -- -- 52
2018-01-02 12:00:00 13.3 15 Oeste 32 Oeste 0 -- -- 53
2018-01-02 11:00:00 11.9 18 Oeste 39 Noroeste 0 -- -- 57
2018-01-02 10:00:00 11 19 Oeste 33 Oeste 0 -- -- 59
2018-01-02 09:00:00 9.6 13 Noroeste 29 Oeste 0 -- -- 64
2018-01-02 08:00:00 9.4 15 Noroeste 36 Oeste 0 -- -- 67
2018-01-02 07:00:00 9.8 19 Oeste 30 Noroeste 0 -- -- 68
2018-01-02 06:00:00 9.7 15 Noroeste 28 Oeste 0 -- -- 69
2018-01-02 05:00:00 9.9 11 Noroeste 25 Oeste 0 -- -- 68
2018-01-02 04:00:00 9.7 7 Noroeste 26 Oeste 0 -- -- 68
2018-01-02 03:00:00 10.6 13 Noroeste 32 Oeste 0 -- -- 65
2018-01-02 02:00:00 10.9 16 Noroeste 36 Oeste 0 -- -- 64
2018-01-02 01:00:00 11.1 22 Noroeste 38 Noroeste 0 -- -- 63
2018-01-02 00:00:00 10.9 23 Noroeste 42 Oeste 0 -- -- 63
2018-01-01 23:00:00 10.8 17 Noroeste 39 Oeste 0 -- -- 62
2018-01-01 22:00:00 10.7 18 Noroeste 35 Oeste 0 -- -- 59
2018-01-01 21:00:00 10.3 16 Noroeste 38 Noroeste 0 -- -- 57
2018-01-01 20:00:00 10.4 20 Noroeste 40 Oeste 0 -- -- 52
2018-01-01 19:00:00 10.7 15 Noroeste 40 Noroeste 0 -- -- 47
2018-01-01 18:00:00 11.6 21 Noroeste 52 Noroeste 0 -- -- 41
2018-01-01 17:00:00 12.6 35 Oeste 63 Noroeste 0 -- -- 35
2018-01-01 16:00:00 13.3 27 Oeste 51 Noroeste 0 -- -- 36
2018-01-01 15:00:00 14.2 14 Oeste 48 Sudoeste 0 -- -- 31
2018-01-01 14:00:00 13.1 16 Oeste 42 Noroeste 0 -- -- 34
2018-01-01 13:00:00 12.7 18 Oeste 37 Sudoeste 0 -- -- 33
2018-01-01 12:00:00 13 14 Noroeste 31 Noroeste 0 -- -- 31
2018-01-01 11:00:00 11.5 14 Noroeste 33 Oeste 0 -- -- 36
2018-01-01 10:00:00 9.4 14 Noroeste 28 Noroeste 0 -- -- 42
2018-01-01 09:00:00 7 14 Noroeste 38 Noroeste 0 -- -- 51
2018-01-01 08:00:00 6.1 14 Noroeste 33 Oeste 0 -- -- 54
2018-01-01 07:00:00 6.6 22 Noroeste 39 Noroeste 0 -- -- 55
2018-01-01 06:00:00 7 16 Noroeste 30 Oeste 0 -- -- 52
2018-01-01 05:00:00 7.5 11 Noroeste 35 Noroeste 0 -- -- 48
2018-01-01 04:00:00 8.4 22 Noroeste 35 Oeste 0 -- -- 43
2018-01-01 03:00:00 8.5 16 Oeste 37 Oeste 0 -- -- 45
2018-01-01 02:00:00 9.2 18 Oeste 36 Oeste 0 -- -- 47
2018-01-01 01:00:00 9.6 13 Oeste 32 Oeste 0 -- -- 53
2018-01-01 00:00:00 10.4 16 Oeste 42 Oeste 0 -- -- 52
2017-12-31 23:00:00 11.2 22 Oeste 46 Oeste 0 -- -- 52
2017-12-31 22:00:00 11.7 24 Noroeste 57 Oeste 0 -- -- 62
2017-12-31 21:00:00 12.4 26 Oeste 57 Oeste 0 -- -- 67
2017-12-31 20:00:00 12.7 26 Oeste 55 Oeste 0 -- -- 63
2017-12-31 19:00:00 12.9 21 Oeste 48 Noroeste 0 -- -- 57
2017-12-31 18:00:00 13.1 32 Oeste 58 Oeste 0 -- -- 55
2017-12-31 17:00:00 13.5 30 Oeste 67 Noroeste 0 -- -- 55
2017-12-31 16:00:00 13.7 31 Oeste 62 Oeste 0 -- -- 54
2017-12-31 15:00:00 14.9 33 Noroeste 49 Oeste 0 -- -- 53
2017-12-31 14:00:00 15.5 19 Oeste 36 Oeste 0 -- -- 50
2017-12-31 13:00:00 14.2 18 Oeste 29 Oeste 0 -- -- 53
2017-12-31 12:00:00 13.3 14 Oeste 25 Oeste 0 -- -- 51
2017-12-31 11:00:00 11.5 12 Oeste 33 Noroeste 0 -- -- 55
2017-12-31 10:00:00 9.1 19 Noroeste 34 Noroeste 0 -- -- 59
2017-12-31 09:00:00 8.9 15 Noroeste 30 Noroeste 0 -- -- 61
2017-12-31 08:00:00 5.7 3 Oeste 18 Oeste 0 -- -- 65
2017-12-31 07:00:00 5.7 5 Noroeste 15 Noroeste 0 -- -- 65
2017-12-31 06:00:00 5.7 0 Calma 19 Norte 0 -- -- 68
2017-12-31 05:00:00 6.4 4 Noroeste 27 Oeste 0 -- -- 69
2017-12-31 04:00:00 6.7 10 Noroeste 22 Oeste 0 -- -- 72
2017-12-31 03:00:00 7.3 12 Noroeste 20 Noroeste 0 -- -- 73
2017-12-31 02:00:00 6.8 4 Norte 24 Oeste 0 -- -- 75
2017-12-31 01:00:00 9.4 17 Oeste 23 Oeste 0 -- -- 70